首页
METAR-TAF:

METAR-TAF

机场 :

巴里, 意大利

纬度: 41-08N, 经度: 016-47E, 海拔: 34米

当前天气观测

该预报发布于37分钟前的05:50 UTC
风速9节,风向西
温度 7°C
湿度 76%
气压 1018 hPa
能见度10公里或以上
少量云层高于3500英尺

METAR: LIBD 010550Z 26009KT 9999 FEW035 07/03 Q1018

时间: 07:27 (06:27 UTC)

预报

该预报发布于1小时和27分钟前的05:00 UTC
预报有效从01日的 06点(UTC)到 02日的 06点(UTC)
风速8节,风向西转西北
能见度10公里或以上
少量云层高于3000英尺
成为
从 01日的 08点(UTC)到 01日的 10点(UTC)
风速5节,风向多变

TAF: LIBD 010500Z 0106/0206 30008KT 9999 FEW030 BECMG 0108/0110 VRB05KT

超过4000个机场的气象观测和天气预报(METAR&TAF报告)。

可查询的气象台以黄色和红色小点在地图上表示。

将鼠标移到小点上方,可查看气象台名称。

然后点击查看天气观测和预报。

如需切换地图:点击带黑十字的绿色按钮放大地图;点击带横线的绿色按钮缩小地图;或者点击绿色箭头查看邻近地区的地图。


METAR-TAF: